sensor_id;sensor_type;location;lat;lon;timestamp;temperature;humidity
13697;DHT22;6920;50.080;8.226;2023-02-28T00:00:04;2.50;99.90
13697;DHT22;6920;50.080;8.226;2023-02-28T00:02:35;2.40;99.90
13697;DHT22;6920;50.080;8.226;2023-02-28T00:05:03;2.40;99.90
13697;DHT22;6920;50.080;8.226;2023-02-28T00:07:30;2.40;99.90
13697;DHT22;6920;50.080;8.226;2023-02-28T00:09:59;2.40;99.90
13697;DHT22;6920;50.080;8.226;2023-02-28T00:12:26;2.30;99.90
13697;DHT22;6920;50.080;8.226;2023-02-28T00:14:53;2.40;99.90
13697;DHT22;6920;50.080;8.226;2023-02-28T00:17:21;2.40;99.90
13697;DHT22;6920;50.080;8.226;2023-02-28T00:19:48;2.30;99.90
13697;DHT22;6920;50.080;8.226;2023-02-28T00:22:16;2.40;99.90
13697;DHT22;6920;50.080;8.226;2023-02-28T00:24:43;2.30;99.90
13697;DHT22;6920;50.080;8.226;2023-02-28T00:27:12;2.30;99.90
13697;DHT22;6920;50.080;8.226;2023-02-28T00:29:40;2.20;99.90
13697;DHT22;6920;50.080;8.226;2023-02-28T00:32:07;2.30;99.90
13697;DHT22;6920;50.080;8.226;2023-02-28T00:34:34;2.30;99.90
13697;DHT22;6920;50.080;8.226;2023-02-28T00:37:04;2.20;99.90
13697;DHT22;6920;50.080;8.226;2023-02-28T00:39:33;2.20;99.90
13697;DHT22;6920;50.080;8.226;2023-02-28T00:44:29;2.20;99.90
13697;DHT22;6920;50.080;8.226;2023-02-28T00:46:56;2.10;99.90
13697;DHT22;6920;50.080;8.226;2023-02-28T00:49:24;2.10;99.90
13697;DHT22;6920;50.080;8.226;2023-02-28T00:51:52;2.10;99.90
13697;DHT22;6920;50.080;8.226;2023-02-28T00:54:19;2.10;99.90
13697;DHT22;6920;50.080;8.226;2023-02-28T00:56:46;2.10;99.90
13697;DHT22;6920;50.080;8.226;2023-02-28T00:59:14;2.00;99.90
13697;DHT22;6920;50.080;8.226;2023-02-28T01:01:43;2.00;99.90
13697;DHT22;6920;50.080;8.226;2023-02-28T01:04:11;2.00;99.90
13697;DHT22;6920;50.080;8.226;2023-02-28T01:06:38;2.00;99.90
13697;DHT22;6920;50.080;8.226;2023-02-28T01:09:06;1.90;99.90
13697;DHT22;6920;50.080;8.226;2023-02-28T01:11:34;1.90;99.90
13697;DHT22;6920;50.080;8.226;2023-02-28T01:14:01;1.90;99.90
13697;DHT22;6920;50.080;8.226;2023-02-28T01:16:29;1.90;99.90
13697;DHT22;6920;50.080;8.226;2023-02-28T01:18:58;1.90;99.90
13697;DHT22;6920;50.080;8.226;2023-02-28T01:21:25;1.80;99.90
13697;DHT22;6920;50.080;8.226;2023-02-28T01:23:52;1.80;99.90
13697;DHT22;6920;50.080;8.226;2023-02-28T01:26:22;1.80;99.90
13697;DHT22;6920;50.080;8.226;2023-02-28T01:28:50;1.70;99.90
13697;DHT22;6920;50.080;8.226;2023-02-28T01:31:19;1.60;99.90
13697;DHT22;6920;50.080;8.226;2023-02-28T01:33:46;1.70;99.90
13697;DHT22;6920;50.080;8.226;2023-02-28T01:36:16;1.70;99.90
13697;DHT22;6920;50.080;8.226;2023-02-28T01:38:44;1.70;99.90
13697;DHT22;6920;50.080;8.226;2023-02-28T01:41:17;1.70;99.90
13697;DHT22;6920;50.080;8.226;2023-02-28T01:44:01;1.60;99.90
13697;DHT22;6920;50.080;8.226;2023-02-28T01:46:32;1.60;99.90
13697;DHT22;6920;50.080;8.226;2023-02-28T01:49:09;1.60;99.90
13697;DHT22;6920;50.080;8.226;2023-02-28T01:51:42;1.60;99.90
13697;DHT22;6920;50.080;8.226;2023-02-28T01:54:19;1.50;99.90
13697;DHT22;6920;50.080;8.226;2023-02-28T01:56:52;1.60;99.90
13697;DHT22;6920;50.080;8.226;2023-02-28T01:59:25;1.60;99.90
13697;DHT22;6920;50.080;8.226;2023-02-28T02:01:54;1.60;99.90
13697;DHT22;6920;50.080;8.226;2023-02-28T02:04:22;1.60;99.90
13697;DHT22;6920;50.080;8.226;2023-02-28T02:06:52;1.60;99.90
13697;DHT22;6920;50.080;8.226;2023-02-28T02:09:19;1.50;99.90
13697;DHT22;6920;50.080;8.226;2023-02-28T02:11:46;6.10;99.90
13697;DHT22;6920;50.080;8.226;2023-02-28T02:14:34;1.50;99.90
13697;DHT22;6920;50.080;8.226;2023-02-28T02:17:14;1.50;99.90
13697;DHT22;6920;50.080;8.226;2023-02-28T02:26:16;1.40;99.90
13697;DHT22;6920;50.080;8.226;2023-02-28T02:32:12;1.40;99.90
13697;DHT22;6920;50.080;8.226;2023-02-28T02:34:52;1.40;99.90
13697;DHT22;6920;50.080;8.226;2023-02-28T02:37:29;1.30;99.90
13697;DHT22;6920;50.080;8.226;2023-02-28T02:40:03;1.30;99.90
13697;DHT22;6920;50.080;8.226;2023-02-28T02:42:41;1.40;99.90
13697;DHT22;6920;50.080;8.226;2023-02-28T02:45:16;1.30;99.90
13697;DHT22;6920;50.080;8.226;2023-02-28T02:47:45;1.30;99.90
13697;DHT22;6920;50.080;8.226;2023-02-28T02:50:17;1.30;99.90
13697;DHT22;6920;50.080;8.226;2023-02-28T02:52:51;1.30;99.90
13697;DHT22;6920;50.080;8.226;2023-02-28T02:55:20;1.30;99.90
13697;DHT22;6920;50.080;8.226;2023-02-28T02:57:53;1.30;99.90
13697;DHT22;6920;50.080;8.226;2023-02-28T03:00:26;1.30;99.90
13697;DHT22;6920;50.080;8.226;2023-02-28T03:02:56;1.30;99.90
13697;DHT22;6920;50.080;8.226;2023-02-28T03:05:30;1.20;99.90
13697;DHT22;6920;50.080;8.226;2023-02-28T03:08:03;1.20;99.90
13697;DHT22;6920;50.080;8.226;2023-02-28T03:10:37;1.20;99.90
13697;DHT22;6920;50.080;8.226;2023-02-28T03:13:29;1.10;99.90
13697;DHT22;6920;50.080;8.226;2023-02-28T03:16:16;1.10;99.90
13697;DHT22;6920;50.080;8.226;2023-02-28T03:18:54;1.10;99.90
13697;DHT22;6920;50.080;8.226;2023-02-28T03:21:30;1.10;99.90
13697;DHT22;6920;50.080;8.226;2023-02-28T03:24:05;1.00;99.90
13697;DHT22;6920;50.080;8.226;2023-02-28T03:26:39;1.00;99.90
13697;DHT22;6920;50.080;8.226;2023-02-28T03:29:15;1.00;99.90
13697;DHT22;6920;50.080;8.226;2023-02-28T03:31:48;1.00;99.90
13697;DHT22;6920;50.080;8.226;2023-02-28T03:34:21;1.00;99.90
13697;DHT22;6920;50.080;8.226;2023-02-28T03:36:55;1.00;99.90
13697;DHT22;6920;50.080;8.226;2023-02-28T03:39:30;0.90;99.90
13697;DHT22;6920;50.080;8.226;2023-02-28T03:42:03;0.90;99.90
13697;DHT22;6920;50.080;8.226;2023-02-28T03:44:34;0.90;99.90
13697;DHT22;6920;50.080;8.226;2023-02-28T03:47:06;0.90;99.90
13697;DHT22;6920;50.080;8.226;2023-02-28T03:49:42;0.90;99.90
13697;DHT22;6920;50.080;8.226;2023-02-28T03:52:19;0.80;99.90
13697;DHT22;6920;50.080;8.226;2023-02-28T03:54:53;0.80;99.90
13697;DHT22;6920;50.080;8.226;2023-02-28T03:57:31;0.80;99.90
13697;DHT22;6920;50.080;8.226;2023-02-28T04:00:07;0.80;99.90
13697;DHT22;6920;50.080;8.226;2023-02-28T04:02:37;0.80;99.90
13697;DHT22;6920;50.080;8.226;2023-02-28T04:05:05;0.90;99.90
13697;DHT22;6920;50.080;8.226;2023-02-28T04:07:35;0.80;99.90
13697;DHT22;6920;50.080;8.226;2023-02-28T04:10:04;0.90;99.90
13697;DHT22;6920;50.080;8.226;2023-02-28T04:12:31;0.90;99.90
13697;DHT22;6920;50.080;8.226;2023-02-28T04:14:58;0.90;99.90
13697;DHT22;6920;50.080;8.226;2023-02-28T04:17:25;0.80;99.90
13697;DHT22;6920;50.080;8.226;2023-02-28T04:19:55;0.80;99.90
13697;DHT22;6920;50.080;8.226;2023-02-28T04:22:23;0.90;99.90
13697;DHT22;6920;50.080;8.226;2023-02-28T04:24:54;0.90;99.90
13697;DHT22;6920;50.080;8.226;2023-02-28T04:27:23;0.90;99.90
13697;DHT22;6920;50.080;8.226;2023-02-28T04:29:50;0.90;99.90
13697;DHT22;6920;50.080;8.226;2023-02-28T04:32:18;3.80;99.90
13697;DHT22;6920;50.080;8.226;2023-02-28T04:34:46;0.90;99.90
13697;DHT22;6920;50.080;8.226;2023-02-28T04:37:13;0.90;99.90
13697;DHT22;6920;50.080;8.226;2023-02-28T04:39:40;0.90;99.90
13697;DHT22;6920;50.080;8.226;2023-02-28T04:42:12;0.80;99.90
13697;DHT22;6920;50.080;8.226;2023-02-28T04:44:39;0.80;99.90
13697;DHT22;6920;50.080;8.226;2023-02-28T04:47:08;0.80;99.90
13697;DHT22;6920;50.080;8.226;2023-02-28T04:49:38;0.80;99.90
13697;DHT22;6920;50.080;8.226;2023-02-28T04:52:06;0.90;99.90
13697;DHT22;6920;50.080;8.226;2023-02-28T04:54:36;0.80;99.90
13697;DHT22;6920;50.080;8.226;2023-02-28T04:57:06;0.80;99.90
13697;DHT22;6920;50.080;8.226;2023-02-28T04:59:39;0.80;99.90
13697;DHT22;6920;50.080;8.226;2023-02-28T05:02:07;0.70;99.90
13697;DHT22;6920;50.080;8.226;2023-02-28T05:04:36;0.80;99.90
13697;DHT22;6920;50.080;8.226;2023-02-28T05:07:18;0.70;99.90
13697;DHT22;6920;50.080;8.226;2023-02-28T05:09:45;0.70;99.90
13697;DHT22;6920;50.080;8.226;2023-02-28T05:12:12;0.70;99.90
13697;DHT22;6920;50.080;8.226;2023-02-28T05:14:40;0.70;99.90
13697;DHT22;6920;50.080;8.226;2023-02-28T05:17:09;0.70;99.90
13697;DHT22;6920;50.080;8.226;2023-02-28T05:19:39;0.70;99.90
13697;DHT22;6920;50.080;8.226;2023-02-28T05:22:14;0.60;99.90
13697;DHT22;6920;50.080;8.226;2023-02-28T05:24:44;0.60;99.90
13697;DHT22;6920;50.080;8.226;2023-02-28T05:27:12;0.60;99.90
13697;DHT22;6920;50.080;8.226;2023-02-28T05:29:43;0.60;99.90
13697;DHT22;6920;50.080;8.226;2023-02-28T05:32:11;0.60;99.90
13697;DHT22;6920;50.080;8.226;2023-02-28T05:34:39;0.60;99.90
13697;DHT22;6920;50.080;8.226;2023-02-28T05:37:07;0.60;99.90
13697;DHT22;6920;50.080;8.226;2023-02-28T05:39:37;0.70;99.90
13697;DHT22;6920;50.080;8.226;2023-02-28T05:42:06;0.70;99.90
13697;DHT22;6920;50.080;8.226;2023-02-28T05:44:35;0.70;99.90
13697;DHT22;6920;50.080;8.226;2023-02-28T05:47:09;0.70;99.90
13697;DHT22;6920;50.080;8.226;2023-02-28T05:49:38;0.70;99.90
13697;DHT22;6920;50.080;8.226;2023-02-28T05:52:06;0.80;99.90
13697;DHT22;6920;50.080;8.226;2023-02-28T05:54:35;0.80;99.90
13697;DHT22;6920;50.080;8.226;2023-02-28T05:57:03;0.90;99.90
13697;DHT22;6920;50.080;8.226;2023-02-28T06:01:58;0.90;99.90
13697;DHT22;6920;50.080;8.226;2023-02-28T06:04:28;1.00;99.90
13697;DHT22;6920;50.080;8.226;2023-02-28T06:07:00;1.00;99.90
13697;DHT22;6920;50.080;8.226;2023-02-28T06:09:27;0.90;99.90
13697;DHT22;6920;50.080;8.226;2023-02-28T06:11:57;0.90;99.90
13697;DHT22;6920;50.080;8.226;2023-02-28T06:14:26;0.90;99.90
13697;DHT22;6920;50.080;8.226;2023-02-28T06:16:55;0.90;99.90
13697;DHT22;6920;50.080;8.226;2023-02-28T06:19:23;0.80;99.90
13697;DHT22;6920;50.080;8.226;2023-02-28T06:21:53;0.80;99.90
13697;DHT22;6920;50.080;8.226;2023-02-28T06:24:21;0.80;99.90
13697;DHT22;6920;50.080;8.226;2023-02-28T06:26:49;0.80;99.90
13697;DHT22;6920;50.080;8.226;2023-02-28T06:29:16;0.90;99.90
13697;DHT22;6920;50.080;8.226;2023-02-28T06:31:44;0.90;99.90
13697;DHT22;6920;50.080;8.226;2023-02-28T06:34:13;0.90;99.90
13697;DHT22;6920;50.080;8.226;2023-02-28T06:36:41;0.80;99.90
13697;DHT22;6920;50.080;8.226;2023-02-28T06:39:10;0.90;99.90
13697;DHT22;6920;50.080;8.226;2023-02-28T06:41:38;0.90;99.90
13697;DHT22;6920;50.080;8.226;2023-02-28T06:44:11;0.90;99.90
13697;DHT22;6920;50.080;8.226;2023-02-28T06:46:42;0.90;99.90
13697;DHT22;6920;50.080;8.226;2023-02-28T06:49:11;0.90;99.90
13697;DHT22;6920;50.080;8.226;2023-02-28T06:51:41;0.90;99.90
13697;DHT22;6920;50.080;8.226;2023-02-28T06:54:12;0.90;99.90
13697;DHT22;6920;50.080;8.226;2023-02-28T06:56:40;1.00;99.90
13697;DHT22;6920;50.080;8.226;2023-02-28T06:59:07;1.10;99.90
13697;DHT22;6920;50.080;8.226;2023-02-28T07:01:36;1.00;99.90
13697;DHT22;6920;50.080;8.226;2023-02-28T07:04:05;1.10;99.90
13697;DHT22;6920;50.080;8.226;2023-02-28T07:06:33;1.20;99.90
13697;DHT22;6920;50.080;8.226;2023-02-28T07:11:32;1.30;99.90
13697;DHT22;6920;50.080;8.226;2023-02-28T07:13:59;1.30;99.90
13697;DHT22;6920;50.080;8.226;2023-02-28T07:18:54;1.40;99.90
13697;DHT22;6920;50.080;8.226;2023-02-28T07:21:21;1.40;99.90
13697;DHT22;6920;50.080;8.226;2023-02-28T07:23:50;1.40;99.90
13697;DHT22;6920;50.080;8.226;2023-02-28T07:26:19;1.50;99.90
13697;DHT22;6920;50.080;8.226;2023-02-28T07:28:50;1.60;99.90
13697;DHT22;6920;50.080;8.226;2023-02-28T07:31:17;1.60;99.90
13697;DHT22;6920;50.080;8.226;2023-02-28T07:33:44;1.60;99.90
13697;DHT22;6920;50.080;8.226;2023-02-28T07:36:15;1.70;99.90
13697;DHT22;6920;50.080;8.226;2023-02-28T07:38:43;1.50;99.90
13697;DHT22;6920;50.080;8.226;2023-02-28T07:41:10;1.70;99.90
13697;DHT22;6920;50.080;8.226;2023-02-28T07:43:38;1.80;99.90
13697;DHT22;6920;50.080;8.226;2023-02-28T07:46:09;1.80;99.90
13697;DHT22;6920;50.080;8.226;2023-02-28T07:48:39;2.00;99.90
13697;DHT22;6920;50.080;8.226;2023-02-28T07:51:07;2.20;99.90
13697;DHT22;6920;50.080;8.226;2023-02-28T07:53:34;2.30;99.90
13697;DHT22;6920;50.080;8.226;2023-02-28T07:56:03;2.50;99.90
13697;DHT22;6920;50.080;8.226;2023-02-28T07:58:31;2.40;99.90
13697;DHT22;6920;50.080;8.226;2023-02-28T08:01:07;2.30;99.90
13697;DHT22;6920;50.080;8.226;2023-02-28T08:03:36;2.20;99.90
13697;DHT22;6920;50.080;8.226;2023-02-28T08:06:04;2.30;99.90
13697;DHT22;6920;50.080;8.226;2023-02-28T08:08:34;2.40;99.90
13697;DHT22;6920;50.080;8.226;2023-02-28T08:11:04;2.50;99.90
13697;DHT22;6920;50.080;8.226;2023-02-28T08:13:33;2.60;99.90
13697;DHT22;6920;50.080;8.226;2023-02-28T08:16:02;2.60;99.90
13697;DHT22;6920;50.080;8.226;2023-02-28T08:18:33;2.70;99.90
13697;DHT22;6920;50.080;8.226;2023-02-28T08:21:10;2.80;99.90
13697;DHT22;6920;50.080;8.226;2023-02-28T08:23:39;2.90;99.90
13697;DHT22;6920;50.080;8.226;2023-02-28T08:26:07;3.00;99.90
13697;DHT22;6920;50.080;8.226;2023-02-28T08:28:35;3.10;99.90
13697;DHT22;6920;50.080;8.226;2023-02-28T08:31:07;3.00;99.90
13697;DHT22;6920;50.080;8.226;2023-02-28T08:33:34;2.90;99.90
13697;DHT22;6920;50.080;8.226;2023-02-28T08:38:30;2.90;99.90
13697;DHT22;6920;50.080;8.226;2023-02-28T08:40:59;2.90;99.90
13697;DHT22;6920;50.080;8.226;2023-02-28T08:43:27;2.90;99.90
13697;DHT22;6920;50.080;8.226;2023-02-28T08:45:55;3.00;99.90
13697;DHT22;6920;50.080;8.226;2023-02-28T08:48:23;3.00;99.90
13697;DHT22;6920;50.080;8.226;2023-02-28T08:51:01;3.00;99.90
13697;DHT22;6920;50.080;8.226;2023-02-28T08:53:30;3.10;99.90
13697;DHT22;6920;50.080;8.226;2023-02-28T08:55:59;3.30;99.90
13697;DHT22;6920;50.080;8.226;2023-02-28T08:58:27;3.30;99.90
13697;DHT22;6920;50.080;8.226;2023-02-28T09:00:54;3.00;99.90
13697;DHT22;6920;50.080;8.226;2023-02-28T09:03:22;3.10;99.90
13697;DHT22;6920;50.080;8.226;2023-02-28T09:05:54;3.30;99.90
13697;DHT22;6920;50.080;8.226;2023-02-28T09:08:22;3.60;99.90
13697;DHT22;6920;50.080;8.226;2023-02-28T09:10:50;3.80;99.90
13697;DHT22;6920;50.080;8.226;2023-02-28T09:13:18;3.70;99.90
13697;DHT22;6920;50.080;8.226;2023-02-28T09:15:45;3.60;99.90
13697;DHT22;6920;50.080;8.226;2023-02-28T09:18:12;3.70;99.90
13697;DHT22;6920;50.080;8.226;2023-02-28T09:20:40;3.90;99.90
13697;DHT22;6920;50.080;8.226;2023-02-28T09:23:08;4.00;99.90
13697;DHT22;6920;50.080;8.226;2023-02-28T09:25:35;4.10;99.90
13697;DHT22;6920;50.080;8.226;2023-02-28T09:28:04;4.00;99.90
13697;DHT22;6920;50.080;8.226;2023-02-28T09:30:31;4.20;99.90
13697;DHT22;6920;50.080;8.226;2023-02-28T09:32:58;3.70;99.90
13697;DHT22;6920;50.080;8.226;2023-02-28T09:35:25;4.20;99.90
13697;DHT22;6920;50.080;8.226;2023-02-28T09:37:53;4.40;99.90
13697;DHT22;6920;50.080;8.226;2023-02-28T09:40:22;4.10;99.90
13697;DHT22;6920;50.080;8.226;2023-02-28T09:42:54;4.40;99.90
13697;DHT22;6920;50.080;8.226;2023-02-28T09:45:29;4.30;99.90
13697;DHT22;6920;50.080;8.226;2023-02-28T09:48:06;4.30;99.90
13697;DHT22;6920;50.080;8.226;2023-02-28T09:50:40;4.30;99.90
13697;DHT22;6920;50.080;8.226;2023-02-28T09:53:18;4.50;99.90
13697;DHT22;6920;50.080;8.226;2023-02-28T09:55:50;4.50;99.90
13697;DHT22;6920;50.080;8.226;2023-02-28T09:58:26;4.70;99.90
13697;DHT22;6920;50.080;8.226;2023-02-28T10:00:59;4.90;99.90
13697;DHT22;6920;50.080;8.226;2023-02-28T10:03:36;5.00;99.90
13697;DHT22;6920;50.080;8.226;2023-02-28T10:06:13;5.00;99.60
13697;DHT22;6920;50.080;8.226;2023-02-28T10:08:47;4.70;99.80
13697;DHT22;6920;50.080;8.226;2023-02-28T10:11:19;4.60;99.90
13697;DHT22;6920;50.080;8.226;2023-02-28T10:13:54;4.90;99.80
13697;DHT22;6920;50.080;8.226;2023-02-28T10:16:32;5.30;99.80
13697;DHT22;6920;50.080;8.226;2023-02-28T10:19:04;5.60;99.40
13697;DHT22;6920;50.080;8.226;2023-02-28T10:21:36;5.20;99.10
13697;DHT22;6920;50.080;8.226;2023-02-28T10:24:15;5.00;99.30
13697;DHT22;6920;50.080;8.226;2023-02-28T10:26:45;4.70;99.30
13697;DHT22;6920;50.080;8.226;2023-02-28T10:29:14;4.90;99.60
13697;DHT22;6920;50.080;8.226;2023-02-28T10:31:43;4.80;99.50
13697;DHT22;6920;50.080;8.226;2023-02-28T10:34:12;5.10;99.30
13697;DHT22;6920;50.080;8.226;2023-02-28T10:36:40;5.00;99.10
13697;DHT22;6920;50.080;8.226;2023-02-28T10:39:34;5.50;98.90
13697;DHT22;6920;50.080;8.226;2023-02-28T10:42:03;5.70;98.80
13697;DHT22;6920;50.080;8.226;2023-02-28T10:44:31;6.00;98.60
13697;DHT22;6920;50.080;8.226;2023-02-28T10:46:59;6.00;98.40
13697;DHT22;6920;50.080;8.226;2023-02-28T10:49:27;5.50;98.40
13697;DHT22;6920;50.080;8.226;2023-02-28T10:51:57;5.00;99.10
13697;DHT22;6920;50.080;8.226;2023-02-28T10:54:27;5.00;99.40
13697;DHT22;6920;50.080;8.226;2023-02-28T10:57:21;5.10;99.30
13697;DHT22;6920;50.080;8.226;2023-02-28T10:59:51;5.30;98.70
13697;DHT22;6920;50.080;8.226;2023-02-28T11:02:34;5.00;98.70
13697;DHT22;6920;50.080;8.226;2023-02-28T11:05:02;5.30;98.50
13697;DHT22;6920;50.080;8.226;2023-02-28T11:07:29;5.70;98.90
13697;DHT22;6920;50.080;8.226;2023-02-28T11:09:57;6.30;98.30
13697;DHT22;6920;50.080;8.226;2023-02-28T11:12:27;6.00;98.00
13697;DHT22;6920;50.080;8.226;2023-02-28T11:14:56;5.70;97.70
13697;DHT22;6920;50.080;8.226;2023-02-28T11:17:26;5.60;98.00
13697;DHT22;6920;50.080;8.226;2023-02-28T11:19:58;5.10;98.40
13697;DHT22;6920;50.080;8.226;2023-02-28T11:22:30;4.90;99.10
13697;DHT22;6920;50.080;8.226;2023-02-28T11:25:01;4.90;98.90
13697;DHT22;6920;50.080;8.226;2023-02-28T11:27:46;5.50;98.80
13697;DHT22;6920;50.080;8.226;2023-02-28T11:30:29;5.50;98.10
13697;DHT22;6920;50.080;8.226;2023-02-28T11:32:57;5.20;98.40
13697;DHT22;6920;50.080;8.226;2023-02-28T11:35:31;5.00;98.80
13697;DHT22;6920;50.080;8.226;2023-02-28T11:38:00;5.20;98.30
13697;DHT22;6920;50.080;8.226;2023-02-28T11:40:38;5.10;98.90
13697;DHT22;6920;50.080;8.226;2023-02-28T11:43:21;5.40;98.70
13697;DHT22;6920;50.080;8.226;2023-02-28T11:46:06;5.60;98.20
13697;DHT22;6920;50.080;8.226;2023-02-28T11:48:47;5.60;98.30
13697;DHT22;6920;50.080;8.226;2023-02-28T11:51:21;5.90;98.10
13697;DHT22;6920;50.080;8.226;2023-02-28T11:53:58;6.10;98.10
13697;DHT22;6920;50.080;8.226;2023-02-28T11:56:33;6.60;97.50
13697;DHT22;6920;50.080;8.226;2023-02-28T11:59:13;7.00;96.80
13697;DHT22;6920;50.080;8.226;2023-02-28T12:02:00;7.10;96.50
13697;DHT22;6920;50.080;8.226;2023-02-28T12:04:37;6.60;96.60
13697;DHT22;6920;50.080;8.226;2023-02-28T12:07:15;6.40;96.80
13697;DHT22;6920;50.080;8.226;2023-02-28T12:09:54;6.60;96.50
13697;DHT22;6920;50.080;8.226;2023-02-28T12:12:38;6.60;96.50
13697;DHT22;6920;50.080;8.226;2023-02-28T12:15:28;6.90;96.50
13697;DHT22;6920;50.080;8.226;2023-02-28T12:18:18;7.20;95.70
13697;DHT22;6920;50.080;8.226;2023-02-28T12:20:53;6.90;96.20
13697;DHT22;6920;50.080;8.226;2023-02-28T12:26:37;7.40;95.60
13697;DHT22;6920;50.080;8.226;2023-02-28T12:29:14;7.10;96.00
13697;DHT22;6920;50.080;8.226;2023-02-28T12:31:47;6.40;96.00
13697;DHT22;6920;50.080;8.226;2023-02-28T12:34:19;6.70;96.20
13697;DHT22;6920;50.080;8.226;2023-02-28T12:36:48;7.60;95.70
13697;DHT22;6920;50.080;8.226;2023-02-28T12:39:23;7.70;95.20
13697;DHT22;6920;50.080;8.226;2023-02-28T12:41:53;7.50;95.00
13697;DHT22;6920;50.080;8.226;2023-02-28T12:44:26;7.40;95.20
13697;DHT22;6920;50.080;8.226;2023-02-28T12:46:56;7.40;95.60
13697;DHT22;6920;50.080;8.226;2023-02-28T12:49:29;7.10;95.20
13697;DHT22;6920;50.080;8.226;2023-02-28T12:51:59;7.20;95.30
13697;DHT22;6920;50.080;8.226;2023-02-28T12:54:32;7.70;95.00
13697;DHT22;6920;50.080;8.226;2023-02-28T12:57:08;7.80;95.20
13697;DHT22;6920;50.080;8.226;2023-02-28T12:59:39;7.90;94.70
13697;DHT22;6920;50.080;8.226;2023-02-28T13:02:33;7.60;95.00
13697;DHT22;6920;50.080;8.226;2023-02-28T13:05:29;7.50;94.80
13697;DHT22;6920;50.080;8.226;2023-02-28T13:11:03;8.70;94.00
13697;DHT22;6920;50.080;8.226;2023-02-28T13:13:31;8.20;94.00
13697;DHT22;6920;50.080;8.226;2023-02-28T13:16:01;7.90;94.50
13697;DHT22;6920;50.080;8.226;2023-02-28T13:18:37;8.10;94.30
13697;DHT22;6920;50.080;8.226;2023-02-28T13:21:07;7.60;94.20
13697;DHT22;6920;50.080;8.226;2023-02-28T13:24:01;7.60;94.40
13697;DHT22;6920;50.080;8.226;2023-02-28T13:29:35;7.80;94.00
13697;DHT22;6920;50.080;8.226;2023-02-28T13:32:33;8.00;94.50
13697;DHT22;6920;50.080;8.226;2023-02-28T13:35:42;7.80;94.70
13697;DHT22;6920;50.080;8.226;2023-02-28T13:38:32;8.20;94.40
13697;DHT22;6920;50.080;8.226;2023-02-28T13:44:07;8.20;94.10
13697;DHT22;6920;50.080;8.226;2023-02-28T13:49:42;8.30;93.80
13697;DHT22;6920;50.080;8.226;2023-02-28T13:52:14;8.30;93.60
13697;DHT22;6920;50.080;8.226;2023-02-28T13:55:03;8.00;93.80
13697;DHT22;6920;50.080;8.226;2023-02-28T13:57:50;8.10;93.60
13697;DHT22;6920;50.080;8.226;2023-02-28T14:00:30;8.40;93.40
13697;DHT22;6920;50.080;8.226;2023-02-28T14:03:19;8.50;93.50
13697;DHT22;6920;50.080;8.226;2023-02-28T14:06:09;9.10;93.30
13697;DHT22;6920;50.080;8.226;2023-02-28T14:08:38;8.90;93.00
13697;DHT22;6920;50.080;8.226;2023-02-28T14:11:35;7.80;93.80
13697;DHT22;6920;50.080;8.226;2023-02-28T14:14:04;8.20;93.90
13697;DHT22;6920;50.080;8.226;2023-02-28T14:16:38;8.30;94.00
13697;DHT22;6920;50.080;8.226;2023-02-28T14:19:12;8.20;93.80
13697;DHT22;6920;50.080;8.226;2023-02-28T14:21:52;8.40;93.70
13697;DHT22;6920;50.080;8.226;2023-02-28T14:27:37;8.30;93.60
13697;DHT22;6920;50.080;8.226;2023-02-28T14:33:27;8.10;94.00
13697;DHT22;6920;50.080;8.226;2023-02-28T14:36:14;8.30;93.50
13697;DHT22;6920;50.080;8.226;2023-02-28T14:38:46;8.10;93.60
13697;DHT22;6920;50.080;8.226;2023-02-28T14:41:22;8.20;93.50
13697;DHT22;6920;50.080;8.226;2023-02-28T14:43:52;8.40;93.80
13697;DHT22;6920;50.080;8.226;2023-02-28T14:46:20;8.80;93.40
13697;DHT22;6920;50.080;8.226;2023-02-28T14:48:50;8.90;94.00
13697;DHT22;6920;50.080;8.226;2023-02-28T14:51:22;8.80;93.30
13697;DHT22;6920;50.080;8.226;2023-02-28T14:53:56;8.50;93.50
13697;DHT22;6920;50.080;8.226;2023-02-28T14:56:33;8.30;94.00
13697;DHT22;6920;50.080;8.226;2023-02-28T14:59:03;7.90;94.50
13697;DHT22;6920;50.080;8.226;2023-02-28T15:01:31;7.20;94.90
13697;DHT22;6920;50.080;8.226;2023-02-28T15:04:01;6.80;95.40
13697;DHT22;6920;50.080;8.226;2023-02-28T15:06:31;7.00;95.60
13697;DHT22;6920;50.080;8.226;2023-02-28T15:09:13;6.90;95.40
13697;DHT22;6920;50.080;8.226;2023-02-28T15:11:41;6.70;96.10
13697;DHT22;6920;50.080;8.226;2023-02-28T15:14:18;6.70;96.10
13697;DHT22;6920;50.080;8.226;2023-02-28T15:16:48;6.60;96.50
13697;DHT22;6920;50.080;8.226;2023-02-28T15:19:20;6.50;97.20
13697;DHT22;6920;50.080;8.226;2023-02-28T15:22:04;6.40;96.60
13697;DHT22;6920;50.080;8.226;2023-02-28T15:28:25;6.40;96.90
13697;DHT22;6920;50.080;8.226;2023-02-28T15:30:56;6.30;96.70
13697;DHT22;6920;50.080;8.226;2023-02-28T15:33:26;6.20;97.00
13697;DHT22;6920;50.080;8.226;2023-02-28T15:36:11;6.10;97.00
13697;DHT22;6920;50.080;8.226;2023-02-28T15:38:43;6.00;97.10
13697;DHT22;6920;50.080;8.226;2023-02-28T15:41:23;6.00;97.10
13697;DHT22;6920;50.080;8.226;2023-02-28T15:44:16;5.90;97.40
13697;DHT22;6920;50.080;8.226;2023-02-28T15:46:53;5.90;97.40
13697;DHT22;6920;50.080;8.226;2023-02-28T15:49:21;6.10;97.60
13697;DHT22;6920;50.080;8.226;2023-02-28T15:51:51;6.00;97.70
13697;DHT22;6920;50.080;8.226;2023-02-28T15:54:21;5.90;97.40
13697;DHT22;6920;50.080;8.226;2023-02-28T15:56:52;5.60;97.90
13697;DHT22;6920;50.080;8.226;2023-02-28T15:59:23;5.70;97.80
13697;DHT22;6920;50.080;8.226;2023-02-28T16:02:11;5.60;97.90
13697;DHT22;6920;50.080;8.226;2023-02-28T16:07:41;5.40;98.30
13697;DHT22;6920;50.080;8.226;2023-02-28T16:10:11;5.40;98.10
13697;DHT22;6920;50.080;8.226;2023-02-28T16:12:40;5.50;98.50
13697;DHT22;6920;50.080;8.226;2023-02-28T16:15:18;5.50;98.50
13697;DHT22;6920;50.080;8.226;2023-02-28T16:17:45;5.40;98.50
13697;DHT22;6920;50.080;8.226;2023-02-28T16:20:14;5.40;98.40
13697;DHT22;6920;50.080;8.226;2023-02-28T16:22:42;5.30;98.60
13697;DHT22;6920;50.080;8.226;2023-02-28T16:25:12;5.30;98.60
13697;DHT22;6920;50.080;8.226;2023-02-28T16:27:40;5.30;98.70
13697;DHT22;6920;50.080;8.226;2023-02-28T16:30:19;5.20;98.60
13697;DHT22;6920;50.080;8.226;2023-02-28T16:32:47;5.30;98.70
13697;DHT22;6920;50.080;8.226;2023-02-28T16:35:14;5.20;98.80
13697;DHT22;6920;50.080;8.226;2023-02-28T16:37:43;5.10;98.90
13697;DHT22;6920;50.080;8.226;2023-02-28T16:40:14;5.50;99.10
13697;DHT22;6920;50.080;8.226;2023-02-28T16:42:43;5.00;99.20
13697;DHT22;6920;50.080;8.226;2023-02-28T16:45:17;5.00;99.20
13697;DHT22;6920;50.080;8.226;2023-02-28T16:47:45;5.10;99.30
13697;DHT22;6920;50.080;8.226;2023-02-28T16:50:14;5.20;99.40
13697;DHT22;6920;50.080;8.226;2023-02-28T16:55:10;5.10;99.40
13697;DHT22;6920;50.080;8.226;2023-02-28T16:57:38;5.00;99.30
13697;DHT22;6920;50.080;8.226;2023-02-28T17:00:08;5.00;99.60
13697;DHT22;6920;50.080;8.226;2023-02-28T17:02:39;5.00;99.90
13697;DHT22;6920;50.080;8.226;2023-02-28T17:05:08;4.90;99.80
13697;DHT22;6920;50.080;8.226;2023-02-28T17:07:35;4.90;99.90
13697;DHT22;6920;50.080;8.226;2023-02-28T17:12:34;5.00;99.90
13697;DHT22;6920;50.080;8.226;2023-02-28T17:15:01;4.90;99.90
13697;DHT22;6920;50.080;8.226;2023-02-28T17:17:28;4.80;99.90
13697;DHT22;6920;50.080;8.226;2023-02-28T17:19:58;4.80;99.90
13697;DHT22;6920;50.080;8.226;2023-02-28T17:22:25;4.80;99.90
13697;DHT22;6920;50.080;8.226;2023-02-28T17:24:52;4.80;99.90
13697;DHT22;6920;50.080;8.226;2023-02-28T17:27:23;4.70;99.90